Time;durP1;ratioP1;P1;durP2;ratioP2;P2;SDS_P1;SDS_P2;PMS_P1;PMS_P2;Temp;Humidity;BMP_temperature;BMP_pressure;BME280_temperature;BME280_humidity;BME280_pressure;Samples;Min_cycle;Max_cycle;Signal;HPM_P1;HPM_P2
2022/10/20 00:01:51;;;;;;;4.10;2.20;;;;;;;19.30;50.08;101604.97;5062846;28;20056;-61
2022/10/20 00:04:16;;;;;;;4.22;2.20;;;;;;;19.24;50.31;101600.13;5062525;28;20356;-60
2022/10/20 00:06:42;;;;;;;4.53;2.22;;;;;;;19.27;50.37;101596.44;5062570;28;20037;-62
2022/10/20 00:09:07;;;;;;;4.05;2.30;;;;;;;19.27;50.26;101580.56;5062443;28;20021;-61
2022/10/20 00:11:32;;;;;;;4.77;2.30;;;;;;;19.24;50.29;101581.63;5062539;28;20064;-60
2022/10/20 00:13:59;;;;;;;4.32;2.13;;;;;;;19.27;50.09;101596.44;5062290;28;20311;-61
2022/10/20 00:16:27;;;;;;;4.45;2.15;;;;;;;19.20;50.47;101593.38;5062340;28;20457;-62
2022/10/20 00:18:54;;;;;;;3.92;1.80;;;;;;;19.24;50.15;101600.13;5062460;28;20024;-61
2022/10/20 00:21:22;;;;;;;4.70;2.20;;;;;;;19.24;50.08;101594.00;5062181;28;20098;-60
2022/10/20 00:23:47;;;;;;;5.03;2.05;;;;;;;19.23;50.09;101598.44;5062051;28;20043;-62
2022/10/20 00:26:22;;;;;;;3.88;2.13;;;;;;;19.21;50.19;101595.06;5062068;28;20036;-61
2022/10/20 00:28:48;;;;;;;4.68;2.30;;;;;;;19.05;49.99;101570.75;5062297;28;20086;-61
2022/10/20 00:31:14;;;;;;;4.88;2.25;;;;;;;19.20;50.16;101588.94;5062270;28;20032;-61
2022/10/20 00:33:40;;;;;;;5.53;2.05;;;;;;;19.18;50.34;101564.44;5061622;28;20629;-61
2022/10/20 00:36:07;;;;;;;4.70;2.20;;;;;;;19.20;50.35;101578.38;5062150;28;20032;-61
2022/10/20 00:38:33;;;;;;;4.88;2.25;;;;;;;19.13;50.25;101560.44;5062033;28;20024;-60
2022/10/20 00:40:59;;;;;;;6.10;2.42;;;;;;;19.17;50.12;101561.91;5062006;28;20021;-63
2022/10/20 00:43:55;;;;;;;4.25;2.38;;;;;;;19.19;50.19;101554.72;5061784;28;20052;-59
2022/10/20 00:46:25;;;;;;;4.78;2.40;;;;;;;19.11;50.19;101547.34;5061925;28;20064;-61
2022/10/20 00:48:54;;;;;;;5.10;2.40;;;;;;;19.17;50.22;101554.00;5061880;28;20082;-60
2022/10/20 00:51:23;;;;;;;4.32;2.35;;;;;;;19.17;50.22;101549.53;5061683;28;20961;-61
2022/10/20 00:53:52;;;;;;;4.30;2.05;;;;;;;19.09;50.26;101548.41;5061661;28;20028;-59
2022/10/20 00:56:18;;;;;;;5.57;2.55;;;;;;;19.16;50.21;101554.94;5061589;28;20028;-60
2022/10/20 00:58:43;;;;;;;4.70;2.30;;;;;;;19.09;50.27;101546.63;5061775;28;20051;-62
2022/10/20 01:01:10;;;;;;;4.85;2.80;;;;;;;19.09;50.52;101558.97;5061525;28;20111;-60
2022/10/20 01:03:44;;;;;;;4.32;2.33;;;;;;;19.08;50.26;101552.84;5060923;28;20033;-62
2022/10/20 01:06:09;;;;;;;5.00;2.55;;;;;;;19.13;50.16;101542.78;5061396;28;20029;-60
2022/10/20 01:08:35;;;;;;;4.88;2.65;;;;;;;19.13;50.25;101547.22;5061501;28;20037;-60
2022/10/20 01:11:47;;;;;;;4.38;2.33;;;;;;;19.12;50.36;101527.03;5061352;28;20036;-61
2022/10/20 01:14:34;;;;;;;4.80;2.38;;;;;;;19.12;50.38;101516.47;5055821;28;20472;-62
2022/10/20 01:17:31;;;;;;;5.78;2.33;;;;;;;19.09;50.49;101503.50;5061601;28;20040;-63
2022/10/20 01:20:22;;;;;;;4.82;2.70;;;;;;;19.11;50.13;101501.59;5060971;28;20039;-62
2022/10/20 01:23:22;;;;;;;4.07;2.33;;;;;;;19.09;50.50;101498.22;5061487;28;20039;-59
2022/10/20 01:26:00;;;;;;;4.63;2.58;;;;;;;19.08;50.15;101494.75;5061351;28;20028;-60
2022/10/20 01:28:39;;;;;;;3.85;2.10;;;;;;;19.03;50.39;101479.22;5061003;28;20163;-60
2022/10/20 01:31:16;;;;;;;5.70;2.60;;;;;;;19.03;50.33;101470.47;5061074;28;20024;-60
2022/10/20 01:33:52;;;;;;;4.90;2.70;;;;;;;19.02;50.28;101469.59;5061199;28;20020;-60
2022/10/20 01:36:35;;;;;;;4.90;2.83;;;;;;;19.03;50.37;101479.22;5061258;28;20473;-63
2022/10/20 01:39:30;;;;;;;5.38;2.63;;;;;;;19.03;50.55;101479.22;5061003;28;20111;-61
2022/10/20 01:42:04;;;;;;;5.00;2.60;;;;;;;19.02;50.43;101476.69;5060921;28;20097;-60
2022/10/20 01:44:32;;;;;;;4.57;2.47;;;;;;;19.04;50.31;101485.34;5061037;28;20060;-60
2022/10/20 01:46:58;;;;;;;4.07;2.30;;;;;;;18.98;50.52;101484.03;5061075;28;20040;-61
2022/10/20 01:49:24;;;;;;;5.50;2.55;;;;;;;19.02;50.33;101488.09;5060757;28;20479;-60
2022/10/20 01:51:49;;;;;;;5.25;2.60;;;;;;;18.81;50.32;101452.72;5060797;28;20029;-60
2022/10/20 01:54:27;;;;;;;4.68;2.95;;;;;;;18.97;50.43;101484.13;5060881;28;20036;-62
2022/10/20 01:57:10;;;;;;;7.18;2.97;;;;;;;18.96;50.29;101474.50;5061065;28;20044;-61
2022/10/20 02:00:14;;;;;;;4.63;2.70;;;;;;;19.01;50.49;101478.50;5061316;28;20048;-59
2022/10/20 02:03:02;;;;;;;5.20;2.85;;;;;;;19.02;50.40;101490.75;5060840;28;20038;-61
2022/10/20 02:05:42;;;;;;;5.05;2.70;;;;;;;18.93;50.30;101469.47;5060913;28;20037;-61
2022/10/20 02:08:36;;;;;;;4.47;2.60;;;;;;;19.00;50.54;101475.97;5060952;28;20059;-60
2022/10/20 02:11:05;;;;;;;4.30;2.60;;;;;;;18.93;50.52;101448.34;5060876;28;20040;-63
2022/10/20 02:13:34;;;;;;;6.43;2.88;;;;;;;18.99;50.45;101464.59;5060845;28;20443;-60
2022/10/20 02:16:06;;;;;;;5.13;2.63;;;;;;;18.92;50.39;101452.78;5061900;28;20036;-61
2022/10/20 02:18:40;;;;;;;5.07;2.83;;;;;;;18.90;50.53;101441.50;5064920;28;20038;-64
2022/10/20 02:21:06;;;;;;;6.25;3.10;;;;;;;18.94;50.36;101456.13;5064525;28;20127;-60
2022/10/20 02:23:36;;;;;;;5.40;2.85;;;;;;;18.91;50.38;101434.41;5064821;28;20044;-60
2022/10/20 02:26:05;;;;;;;4.75;2.70;;;;;;;18.89;50.53;101426.59;5064639;28;20028;-62
2022/10/20 02:28:34;;;;;;;5.35;3.30;;;;;;;18.96;50.41;101438.41;5064568;28;20265;-61
2022/10/20 02:31:01;;;;;;;5.32;3.00;;;;;;;18.94;50.51;101428.91;5064230;28;20836;-62
2022/10/20 02:33:28;;;;;;;4.80;3.10;;;;;;;18.95;50.48;101423.50;5063771;28;20032;-61
2022/10/20 02:35:58;;;;;;;5.03;3.10;;;;;;;18.95;50.43;101415.56;5064248;28;21256;-60
2022/10/20 02:38:23;;;;;;;5.88;3.00;;;;;;;18.94;50.42;101411.25;5064065;28;20037;-62
2022/10/20 02:40:49;;;;;;;4.97;2.88;;;;;;;18.88;50.54;101395.03;5064418;28;20031;-60
2022/10/20 02:43:14;;;;;;;4.93;2.83;;;;;;;18.85;50.25;101378.47;5063691;28;20406;-61
2022/10/20 02:45:39;;;;;;;5.13;3.00;;;;;;;18.88;50.35;101389.75;5064231;28;20031;-61
2022/10/20 02:48:08;;;;;;;5.53;2.70;;;;;;;18.85;50.13;101380.28;5063774;28;21145;-62
2022/10/20 02:50:33;;;;;;;4.95;2.90;;;;;;;18.88;50.34;101374.72;5064173;28;20125;-63
2022/10/20 02:52:59;;;;;;;5.50;2.88;;;;;;;18.90;50.19;101374.59;5064210;28;20025;-61
2022/10/20 02:55:24;;;;;;;9.40;3.45;;;;;;;18.84;50.29;101371.47;5063739;28;20033;-60
2022/10/20 02:57:50;;;;;;;5.00;2.90;;;;;;;18.90;50.20;101366.69;5064284;28;20040;-60
2022/10/20 03:00:15;;;;;;;6.03;2.95;;;;;;;18.87;50.26;101354.56;5063898;28;20277;-61
2022/10/20 03:02:40;;;;;;;5.45;2.92;;;;;;;18.83;50.38;101348.66;5063715;28;20060;-60
2022/10/20 03:05:06;;;;;;;4.55;2.92;;;;;;;18.89;50.37;101357.94;5063569;28;20080;-62
2022/10/20 03:07:31;;;;;;;5.72;3.55;;;;;;;18.81;50.18;101340.00;5064196;28;20028;-62
2022/10/20 03:09:56;;;;;;;5.93;2.75;;;;;;;18.82;50.16;101339.06;5063759;28;20031;-62
2022/10/20 03:12:22;;;;;;;6.07;3.15;;;;;;;18.88;50.41;101348.31;5063803;28;20077;-59
2022/10/20 03:14:47;;;;;;;5.13;3.20;;;;;;;18.82;50.61;101332.94;5063420;28;20368;-63
2022/10/20 03:17:12;;;;;;;6.70;3.00;;;;;;;18.85;50.29;101338.84;5063818;28;20249;-60
2022/10/20 03:19:39;;;;;;;5.33;3.30;;;;;;;18.81;50.25;101333.88;5063329;28;20033;-62
2022/10/20 03:22:05;;;;;;;5.03;2.97;;;;;;;18.81;50.19;101331.25;5063574;28;20294;-61
2022/10/20 03:24:30;;;;;;;5.78;3.00;;;;;;;18.81;50.24;101325.97;5063547;28;20064;-60
2022/10/20 03:26:55;;;;;;;5.70;3.07;;;;;;;18.87;50.29;101336.09;5063052;28;20153;-61
2022/10/20 03:29:20;;;;;;;5.50;3.40;;;;;;;18.79;50.09;101326.06;5062601;28;20809;-61
2022/10/20 03:31:45;;;;;;;6.40;3.20;;;;;;;18.84;50.31;101323.94;5063519;28;20296;-63
2022/10/20 03:34:12;;;;;;;5.38;2.95;;;;;;;18.79;50.28;101309.41;5062860;28;20280;-60
2022/10/20 03:36:37;;;;;;;5.38;3.28;;;;;;;18.83;50.36;101321.41;5063535;28;20056;-61
2022/10/20 03:39:02;;;;;;;4.93;3.20;;;;;;;18.71;50.38;101306.47;5063556;28;20447;-60
2022/10/20 03:41:28;;;;;;;5.30;2.85;;;;;;;18.81;50.59;101315.41;5063206;28;20036;-60
2022/10/20 03:43:53;;;;;;;5.30;2.90;;;;;;;18.80;50.44;101314.56;5062973;28;20052;-60
2022/10/20 03:46:18;;;;;;;4.65;2.72;;;;;;;18.83;50.27;101318.75;5063113;28;20272;-60
2022/10/20 03:48:44;;;;;;;6.63;3.10;;;;;;;18.76;50.36;101309.63;5062761;28;20106;-62
2022/10/20 03:51:12;;;;;;;5.90;3.30;;;;;;;18.81;50.32;101307.47;5063360;28;20117;-60
2022/10/20 03:53:38;;;;;;;6.07;3.40;;;;;;;18.80;50.51;101298.72;5062893;28;20267;-62
2022/10/20 03:56:14;;;;;;;4.85;3.05;;;;;;;18.81;50.42;101297.75;5062763;28;20159;-61
2022/10/20 03:58:39;;;;;;;4.88;3.10;;;;;;;18.77;50.34;101295.47;5062716;28;20544;-62
2022/10/20 04:01:06;;;;;;;5.65;3.22;;;;;;;18.75;50.47;101295.56;5062730;28;20032;-59
2022/10/20 04:03:31;;;;;;;5.60;3.60;;;;;;;18.78;50.42;101299.78;5062346;28;20024;-59
2022/10/20 04:05:56;;;;;;;5.03;3.05;;;;;;;18.74;50.63;101290.41;5063139;28;20515;-60
2022/10/20 04:08:22;;;;;;;5.53;3.10;;;;;;;18.75;50.68;101287.66;5062464;28;20024;-59
2022/10/20 04:10:47;;;;;;;4.68;3.20;;;;;;;18.79;50.60;101297.03;5062720;28;20253;-60
2022/10/20 04:13:12;;;;;;;7.77;3.30;;;;;;;18.70;51.02;101273.13;5062361;28;20091;-60
2022/10/20 04:15:37;;;;;;;5.30;3.40;;;;;;;18.80;50.60;101284.66;5062397;28;20273;-62
2022/10/20 04:18:03;;;;;;;5.33;3.33;;;;;;;18.79;50.58;101277.72;5061950;28;20279;-62
2022/10/20 04:20:28;;;;;;;4.90;3.10;;;;;;;18.78;50.66;101270.75;5062512;28;20737;-61
2022/10/20 04:22:53;;;;;;;5.00;3.10;;;;;;;18.79;50.77;101269.81;5061994;28;20045;-63
2022/10/20 04:25:19;;;;;;;5.35;3.30;;;;;;;18.77;50.89;101266.41;5062411;28;20270;-60
2022/10/20 04:27:44;;;;;;;5.32;3.15;;;;;;;18.79;50.73;101259.25;5062097;28;20111;-62
2022/10/20 04:30:10;;;;;;;5.82;3.42;;;;;;;18.73;50.76;101247.34;5062376;28;20530;-60
2022/10/20 04:32:35;;;;;;;5.28;3.30;;;;;;;18.79;50.54;101257.44;5061940;28;20384;-61
2022/10/20 04:35:00;;;;;;;5.38;3.28;;;;;;;18.78;50.88;101249.63;5061893;28;20037;-61
2022/10/20 04:37:26;;;;;;;5.50;3.15;;;;;;;18.79;50.98;101248.69;5060699;28;20027;-61
2022/10/20 04:39:51;;;;;;;5.53;3.47;;;;;;;18.79;50.83;101252.16;5061868;28;20119;-61
2022/10/20 04:42:18;;;;;;;5.38;2.97;;;;;;;18.73;50.81;101241.22;5061747;28;20360;-62
2022/10/20 04:44:43;;;;;;;5.53;3.28;;;;;;;18.79;50.93;101253.97;5061718;28;20487;-63
2022/10/20 04:47:09;;;;;;;4.03;2.53;;;;;;;18.68;50.89;101226.56;5061909;28;20043;-59
2022/10/20 04:49:34;;;;;;;5.45;3.38;;;;;;;18.79;50.68;101227.56;5061950;28;20344;-61
2022/10/20 04:52:00;;;;;;;5.75;3.05;;;;;;;18.79;50.87;101217.81;5061986;28;20036;-62
2022/10/20 04:54:25;;;;;;;5.10;3.17;;;;;;;18.79;50.92;101223.09;5061412;28;20415;-60
2022/10/20 04:56:50;;;;;;;5.78;3.35;;;;;;;18.72;50.86;101203.41;5061797;28;20029;-61
2022/10/20 04:59:15;;;;;;;5.93;3.65;;;;;;;18.76;50.91;101222.50;5061719;28;20036;-59
2022/10/20 05:01:41;;;;;;;5.32;3.28;;;;;;;18.72;50.72;101213.97;5061740;28;20053;-59
2022/10/20 05:04:06;;;;;;;5.20;3.03;;;;;;;18.78;50.97;101220.56;5061187;28;20121;-60
2022/10/20 05:06:32;;;;;;;6.57;3.38;;;;;;;18.70;50.83;101218.53;5061929;28;20792;-61
2022/10/20 05:09:01;;;;;;;5.72;4.00;;;;;;;18.72;50.79;101221.06;5061392;28;20035;-62
2022/10/20 05:11:28;;;;;;;4.93;3.30;;;;;;;18.78;50.83;101241.69;5061505;28;20832;-60
2022/10/20 05:13:54;;;;;;;4.80;3.13;;;;;;;18.55;50.93;101199.44;5061250;28;20073;-63
2022/10/20 05:16:20;;;;;;;4.80;3.17;;;;;;;18.78;50.90;101217.94;5061291;28;20028;-60
2022/10/20 05:18:47;;;;;;;5.65;3.53;;;;;;;18.73;50.90;101193.69;5061130;28;20122;-60
2022/10/20 05:21:18;;;;;;;6.20;3.38;;;;;;;18.72;51.00;101181.44;5061769;28;20479;-60
2022/10/20 05:23:44;;;;;;;5.18;3.47;;;;;;;18.75;50.89;101189.97;5061219;28;20033;-61
2022/10/20 05:26:15;;;;;;;5.22;3.38;;;;;;;18.77;51.03;101214.47;5061338;28;20081;-61
2022/10/20 05:28:47;;;;;;;5.70;3.15;;;;;;;18.80;51.10;101205.44;5061457;28;20032;-60
2022/10/20 05:31:13;;;;;;;5.30;3.35;;;;;;;18.80;51.01;101205.44;5061677;28;20029;-60
2022/10/20 05:33:43;;;;;;;5.18;3.08;;;;;;;18.82;51.20;101214.13;5061338;28;20024;-61
2022/10/20 05:36:10;;;;;;;4.82;3.05;;;;;;;18.80;51.22;101210.72;5061305;28;20024;-60
2022/10/20 05:38:35;;;;;;;5.13;3.03;;;;;;;18.84;51.21;101199.84;5061145;28;20553;-60
2022/10/20 05:41:16;;;;;;;5.68;3.00;;;;;;;18.83;51.36;101171.75;5060976;28;20029;-59
2022/10/20 05:43:41;;;;;;;5.03;2.80;;;;;;;18.91;51.22;101181.69;5060755;28;20044;-61
2022/10/20 05:46:07;;;;;;;5.68;3.10;;;;;;;18.94;51.05;101186.75;5061062;28;20538;-60
2022/10/20 05:48:33;;;;;;;4.95;2.65;;;;;;;18.87;51.14;101174.13;5061268;28;20036;-61
2022/10/20 05:51:08;;;;;;;5.85;3.13;;;;;;;19.02;50.89;101205.47;5063931;28;20029;-61
2022/10/20 05:53:33;;;;;;;;;;;;;;;19.01;51.17;101205.59;5068010;28;20036;-61
2022/10/20 05:56:05;;;;;;;5.47;3.07;;;;;;;18.97;50.91;101191.78;5067492;28;19912;-61
2022/10/20 05:58:31;;;;;;;4.32;2.78;;;;;;;19.04;50.98;101194.78;5067484;28;20430;-62
2022/10/20 06:01:19;;;;;;;5.53;2.80;;;;;;;19.10;50.94;101207.50;5067659;28;20028;-59
2022/10/20 06:03:56;;;;;;;4.70;2.80;;;;;;;19.08;51.09;101193.56;5067701;28;20099;-62
2022/10/20 06:06:27;;;;;;;4.10;2.50;;;;;;;19.08;50.92;101192.75;5067462;28;20120;-60
2022/10/20 06:08:53;;;;;;;4.50;2.70;;;;;;;19.15;50.85;101191.28;5067346;28;20035;-61
2022/10/20 06:11:19;;;;;;;4.35;2.60;;;;;;;19.15;50.90;101188.63;5067419;28;20028;-60
2022/10/20 06:13:45;;;;;;;4.47;2.97;;;;;;;19.14;50.99;101190.44;5067254;28;20113;-61
2022/10/20 06:16:15;;;;;;;5.68;2.92;;;;;;;19.17;51.02;101195.50;5067475;28;20032;-62
2022/10/20 06:18:42;;;;;;;4.72;2.80;;;;;;;19.15;50.94;101186.00;5067697;28;20139;-60
2022/10/20 06:21:14;;;;;;;4.40;2.55;;;;;;;19.21;50.85;101206.63;5067369;28;20029;-61
2022/10/20 06:23:39;;;;;;;4.60;2.95;;;;;;;19.19;50.93;101201.47;5067261;28;20041;-60
2022/10/20 06:26:07;;;;;;;4.88;2.92;;;;;;;19.23;50.83;101215.28;5066306;28;20043;-61
2022/10/20 06:28:34;;;;;;;4.80;3.10;;;;;;;19.24;50.97;101208.22;5067552;28;20024;-60
2022/10/20 06:30:59;;;;;;;4.68;2.88;;;;;;;19.25;50.78;101191.38;5067401;28;20032;-61
2022/10/20 06:33:28;;;;;;;5.13;2.72;;;;;;;19.26;50.79;101204.47;5067218;28;20032;-60
2022/10/20 06:36:00;;;;;;;5.15;2.83;;;;;;;19.23;50.56;101185.38;5067195;28;20048;-61
2022/10/20 06:38:25;;;;;;;4.70;2.47;;;;;;;19.25;50.56;101180.81;5067520;28;20106;-60
2022/10/20 06:40:50;;;;;;;6.78;2.88;;;;;;;19.31;51.01;101188.25;5067542;28;20066;-60
2022/10/20 06:43:16;;;;;;;4.70;2.70;;;;;;;19.33;51.22;101189.81;5067301;28;20098;-63
2022/10/20 06:45:41;;;;;;;8.10;3.00;;;;;;;19.34;51.12;101193.28;5067361;28;20036;-60
2022/10/20 06:48:06;;;;;;;7.60;2.83;;;;;;;19.32;51.23;101189.94;5067373;28;20692;-60
2022/10/20 06:50:33;;;;;;;5.23;3.10;;;;;;;19.34;51.11;101188.00;5067127;28;20464;-63
2022/10/20 06:52:58;;;;;;;6.63;2.78;;;;;;;19.37;51.03;101187.75;5066682;28;20293;-61
2022/10/20 06:55:23;;;;;;;6.05;2.80;;;;;;;19.37;51.43;101185.09;5067149;28;20082;-61
2022/10/20 06:57:48;;;;;;;8.70;2.80;;;;;;;19.33;51.22;101176.59;5067167;28;20490;-62
2022/10/20 07:00:14;;;;;;;4.55;2.90;;;;;;;19.38;51.37;101174.41;5067362;28;20460;-61
2022/10/20 07:02:39;;;;;;;4.80;2.70;;;;;;;19.34;51.36;101153.63;5065105;28;20140;-61
2022/10/20 07:05:05;;;;;;;7.38;2.90;;;;;;;19.36;51.19;101151.72;5063755;28;20056;-60
2022/10/20 07:07:30;;;;;;;4.88;2.63;;;;;;;19.38;51.50;101155.91;5063637;28;20466;-62
2022/10/20 07:09:55;;;;;;;4.73;2.80;;;;;;;19.44;51.28;101170.44;5064226;28;20135;-62
2022/10/20 07:12:21;;;;;;;5.50;3.03;;;;;;;19.39;51.47;101172.59;5063686;28;20269;-64
2022/10/20 07:14:47;;;;;;;7.43;2.95;;;;;;;19.40;51.45;101177.75;5063628;28;20273;-61
2022/10/20 07:17:12;;;;;;;6.63;4.25;;;;;;;19.43;51.46;101184.59;5063358;28;20383;-61
2022/10/20 07:19:37;;;;;;;5.15;2.65;;;;;;;19.43;51.58;101173.22;5063571;28;20036;-60
2022/10/20 07:22:02;;;;;;;4.47;2.83;;;;;;;19.47;51.76;101191.34;5063100;28;20024;-61
2022/10/20 07:24:28;;;;;;;6.00;3.10;;;;;;;19.43;51.40;101170.56;5063693;28;20363;-61
2022/10/20 07:26:53;;;;;;;4.68;2.58;;;;;;;19.42;51.38;101174.16;5063729;28;20028;-61
2022/10/20 07:29:19;;;;;;;5.43;2.87;;;;;;;19.40;51.87;101172.47;5063551;28;20033;-63
2022/10/20 07:31:46;;;;;;;4.72;2.90;;;;;;;19.39;51.42;101164.66;5063677;28;20384;-62
2022/10/20 07:34:13;;;;;;;5.28;2.75;;;;;;;19.41;51.66;101183.91;5062970;28;20126;-60
2022/10/20 07:36:40;;;;;;;4.28;2.58;;;;;;;19.46;51.63;101181.72;5063342;28;20074;-59
2022/10/20 07:39:06;;;;;;;5.00;2.78;;;;;;;19.44;51.43;101180.16;5063433;28;20055;-62
2022/10/20 07:41:33;;;;;;;4.88;2.80;;;;;;;19.46;51.47;101179.06;5063477;28;20143;-62
2022/10/20 07:43:58;;;;;;;6.63;3.15;;;;;;;19.42;51.32;101175.00;5063146;28;20048;-61
2022/10/20 07:46:24;;;;;;;5.07;2.80;;;;;;;19.50;51.58;101177.00;5062950;28;20044;-62
2022/10/20 07:48:49;;;;;;;4.85;3.20;;;;;;;19.49;51.22;101180.63;5063021;28;20055;-61
2022/10/20 07:51:20;;;;;;;5.85;2.90;;;;;;;19.49;51.26;101184.13;5062457;28;20029;-60
2022/10/20 07:53:47;;;;;;;6.53;3.03;;;;;;;19.44;51.38;101169.56;5062594;28;20119;-63
2022/10/20 07:56:13;;;;;;;5.70;3.17;;;;;;;19.50;51.59;101185.81;5062797;28;20024;-61
2022/10/20 07:58:38;;;;;;;6.80;3.13;;;;;;;19.44;51.45;101175.72;5063064;28;20029;-63
2022/10/20 08:01:04;;;;;;;5.25;2.88;;;;;;;19.51;51.48;101191.91;5062614;28;20395;-61
2022/10/20 08:03:29;;;;;;;7.30;3.10;;;;;;;19.49;51.56;101178.00;5061857;28;20407;-66
2022/10/20 08:05:55;;;;;;;6.30;2.95;;;;;;;19.48;51.68;101165.72;5060658;28;20038;-71
2022/10/20 08:08:20;;;;;;;4.32;2.70;;;;;;;19.53;51.47;101168.84;5062368;28;20028;-67
2022/10/20 08:10:46;;;;;;;5.68;3.17;;;;;;;19.57;51.39;101186.97;5061935;28;20056;-70
2022/10/20 08:13:11;;;;;;;6.10;3.30;;;;;;;19.53;51.66;101174.13;5061777;28;20028;-65
2022/10/20 08:15:36;;;;;;;6.73;3.10;;;;;;;19.61;51.82;101178.78;5060452;28;20055;-63
2022/10/20 08:18:03;;;;;;;5.93;3.17;;;;;;;19.51;51.46;101168.97;5061732;28;20265;-63
2022/10/20 08:20:28;;;;;;;5.75;3.35;;;;;;;19.60;51.67;101170.03;5061988;28;20303;-62
2022/10/20 08:22:53;;;;;;;5.93;3.00;;;;;;;19.60;51.57;101180.59;5061917;28;20563;-66
2022/10/20 08:25:19;;;;;;;6.57;3.30;;;;;;;19.53;51.56;101152.97;5061711;28;20411;-66
2022/10/20 08:27:44;;;;;;;5.45;3.10;;;;;;;19.68;51.49;101170.22;5061852;28;20032;-67
2022/10/20 08:30:10;;;;;;;5.70;3.03;;;;;;;19.71;51.52;101177.91;5059971;28;20040;-69
2022/10/20 08:32:35;;;;;;;7.43;3.17;;;;;;;19.70;51.22;101159.53;5061613;28;20099;-66
2022/10/20 08:35:00;;;;;;;5.60;2.80;;;;;;;19.78;51.46;101172.97;5061719;28;20258;-71
2022/10/20 08:37:28;;;;;;;6.25;3.28;;;;;;;19.75;51.41;101173.19;5061464;28;20261;-68
2022/10/20 08:39:54;;;;;;;6.03;3.35;;;;;;;19.82;51.40;101178.84;5061811;28;20028;-68
2022/10/20 08:42:19;;;;;;;4.97;2.73;;;;;;;19.83;51.56;101184.00;5061368;28;20024;-66
2022/10/20 08:44:46;;;;;;;6.10;2.97;;;;;;;19.83;51.36;101170.78;5061278;28;20282;-68
2022/10/20 08:47:23;;;;;;;6.20;3.20;;;;;;;19.81;51.25;101159.50;5061273;28;20364;-65
2022/10/20 08:49:49;;;;;;;5.53;3.30;;;;;;;19.83;51.30;101168.13;5060592;28;20103;-63
2022/10/20 08:52:16;;;;;;;6.13;2.92;;;;;;;19.80;51.36;101157.81;5060324;28;20120;-62
2022/10/20 08:54:42;;;;;;;5.65;3.15;;;;;;;19.80;51.33;101151.69;5060752;28;21288;-61
2022/10/20 08:57:20;;;;;;;5.07;2.67;;;;;;;19.75;51.14;101137.00;5061128;28;20036;-62
2022/10/20 08:59:45;;;;;;;8.43;2.90;;;;;;;19.81;51.22;101140.97;5061432;28;20123;-61
2022/10/20 09:02:16;;;;;;;5.13;2.70;;;;;;;19.75;51.39;101139.63;5061492;28;20448;-61
2022/10/20 09:04:47;;;;;;;6.55;2.92;;;;;;;19.83;51.84;101148.78;5058896;28;20043;-66
2022/10/20 09:07:21;;;;;;;4.78;2.90;;;;;;;19.80;51.43;101147.22;5061118;28;20353;-65
2022/10/20 09:09:47;;;;;;;6.07;2.97;;;;;;;19.88;51.43;101147.41;5061069;28;20035;-65
2022/10/20 09:12:14;;;;;;;5.28;2.88;;;;;;;19.84;51.63;101139.91;5061445;28;20453;-67
2022/10/20 09:14:39;;;;;;;5.05;3.15;;;;;;;19.82;51.81;101137.38;5060572;28;20021;-63
2022/10/20 09:17:11;;;;;;;5.28;2.95;;;;;;;19.84;51.84;101138.09;5060963;28;20483;-61
2022/10/20 09:19:37;;;;;;;6.47;3.10;;;;;;;19.87;51.83;101145.75;5060986;28;20479;-68
2022/10/20 09:22:06;;;;;;;6.28;3.13;;;;;;;19.95;51.32;101153.06;5061072;28;20040;-67
2022/10/20 09:24:34;;;;;;;5.40;3.20;;;;;;;19.97;51.29;101152.94;5060476;28;20082;-68
2022/10/20 09:27:19;;;;;;;4.45;2.83;;;;;;;19.96;51.26;101146.78;5059784;28;20029;-64
2022/10/20 09:29:44;;;;;;;5.10;3.05;;;;;;;19.97;51.57;101145.81;5060457;28;20127;-62
2022/10/20 09:32:34;;;;;;;4.43;2.63;;;;;;;19.98;51.34;101139.56;5060496;28;20471;-64
2022/10/20 09:35:17;;;;;;;6.90;3.13;;;;;;;19.96;51.62;101141.47;5060729;28;20501;-63
2022/10/20 09:37:51;;;;;;;6.73;3.27;;;;;;;19.93;51.88;101142.59;5059436;28;20035;-66
2022/10/20 09:40:17;;;;;;;6.72;2.92;;;;;;;19.97;51.40;101148.47;5056712;28;20525;-68
2022/10/20 09:42:53;;;;;;;5.20;3.00;;;;;;;19.90;51.52;101149.94;5060407;28;20095;-67
2022/10/20 09:45:28;;;;;;;7.07;3.08;;;;;;;19.96;51.82;101160.00;5060403;28;20079;-69
2022/10/20 09:48:01;;;;;;;8.50;2.83;;;;;;;20.01;51.90;101164.91;5059934;28;20388;-64
2022/10/20 09:50:31;;;;;;;7.03;3.00;;;;;;;19.99;51.98;101167.69;5060327;28;20123;-63
2022/10/20 09:53:01;;;;;;;8.70;3.20;;;;;;;19.90;51.58;101128.78;5060353;28;20108;-66
2022/10/20 09:55:32;;;;;;;7.50;3.08;;;;;;;19.92;51.62;101118.94;5060111;28;20047;-66
2022/10/20 09:58:00;;;;;;;4.82;2.88;;;;;;;19.92;51.75;101127.69;5060280;28;20404;-68
2022/10/20 10:00:45;;;;;;;5.18;3.10;;;;;;;19.93;51.76;101117.94;5060037;28;20021;-65
2022/10/20 10:03:22;;;;;;;5.47;2.85;;;;;;;19.97;51.47;101131.75;5060093;28;20032;-65
2022/10/20 10:05:58;;;;;;;8.13;2.88;;;;;;;19.94;51.41;101120.44;5060497;28;20427;-64
2022/10/20 10:08:28;;;;;;;6.07;3.10;;;;;;;19.98;51.98;101141.34;5060311;28;20020;-65
2022/10/20 10:10:59;;;;;;;6.10;3.08;;;;;;;19.94;51.74;101132.84;5060010;28;20032;-65
2022/10/20 10:13:28;;;;;;;4.95;2.88;;;;;;;19.91;51.75;101131.28;5059562;28;20025;-66
2022/10/20 10:16:20;;;;;;;5.97;3.10;;;;;;;19.98;52.11;101142.22;5058948;28;20371;-67
2022/10/20 10:18:56;;;;;;;6.30;3.20;;;;;;;20.01;51.72;101143.75;5058548;28;20097;-67
2022/10/20 10:21:22;;;;;;;7.55;3.83;;;;;;;19.96;51.73;101122.13;5060902;28;20028;-72
2022/10/20 10:23:58;;;;;;;5.00;3.30;;;;;;;19.96;51.99;101114.19;5059850;28;20388;-66
2022/10/20 10:26:36;;;;;;;6.72;3.10;;;;;;;20.03;51.95;101121.50;5060843;28;20107;-66
2022/10/20 10:29:03;;;;;;;6.82;3.17;;;;;;;19.98;51.96;101106.97;5060326;28;20071;-59
2022/10/20 10:31:28;;;;;;;6.93;3.13;;;;;;;19.95;52.05;101102.78;5057563;28;20020;-64
2022/10/20 10:34:14;;;;;;;6.38;3.58;;;;;;;20.01;51.92;101106.72;5059778;28;20040;-62
2022/10/20 10:36:39;;;;;;;7.60;3.20;;;;;;;19.96;51.94;101093.88;5059440;28;20020;-66
2022/10/20 10:39:11;;;;;;;6.30;3.00;;;;;;;19.98;52.23;101088.44;5063878;28;20464;-65
2022/10/20 10:41:40;;;;;;;7.93;3.08;;;;;;;20.04;52.04;101111.75;5063364;28;20039;-64
2022/10/20 10:44:40;;;;;;;5.35;3.25;;;;;;;19.94;52.18;101099.28;5063147;28;20501;-64
2022/10/20 10:47:29;;;;;;;6.57;2.67;;;;;;;20.00;52.27;101105.06;5064134;28;20754;-65
2022/10/20 10:50:25;;;;;;;5.30;3.30;;;;;;;19.98;52.10;101114.91;5057276;28;20056;-64
2022/10/20 10:53:07;;;;;;;6.10;3.28;;;;;;;19.89;52.48;101103.31;5063941;28;20032;-64
2022/10/20 10:55:52;;;;;;;7.05;3.33;;;;;;;19.92;52.45;101127.69;5064221;28;20838;-65
2022/10/20 10:58:41;;;;;;;6.00;3.22;;;;;;;19.95;52.69;101105.44;5061068;28;20039;-66
2022/10/20 11:01:15;;;;;;;6.05;3.47;;;;;;;19.94;52.70;101112.53;5063100;28;20079;-67
2022/10/20 11:03:47;;;;;;;8.38;3.20;;;;;;;19.96;52.95;101100.97;5063025;28;20024;-67
2022/10/20 11:06:41;;;;;;;8.15;2.97;;;;;;;19.96;52.83;101093.03;5063545;28;20483;-66
2022/10/20 11:09:24;;;;;;;6.72;3.03;;;;;;;19.97;52.63;101081.50;5062818;28;20032;-63
2022/10/20 11:12:13;;;;;;;8.27;3.13;;;;;;;19.96;52.77;101075.34;5062403;28;20041;-61
2022/10/20 11:15:14;;;;;;;7.90;3.17;;;;;;;19.95;52.50;101086.94;5062648;28;20117;-60
2022/10/20 11:17:51;;;;;;;6.78;3.30;;;;;;;19.88;52.88;101073.34;5061575;28;20076;-67
2022/10/20 11:20:32;;;;;;;6.43;3.25;;;;;;;19.96;52.80;101074.53;5062787;28;20464;-68
2022/10/20 11:23:23;;;;;;;7.70;3.38;;;;;;;20.00;52.76;101083.88;5062812;28;20360;-64
2022/10/20 11:25:59;;;;;;;9.98;3.50;;;;;;;20.00;53.09;101074.13;5062766;28;20028;-70
2022/10/20 11:28:43;;;;;;;7.43;3.28;;;;;;;19.94;53.07;101054.31;5063349;28;20047;-72
2022/10/20 11:31:19;;;;;;;4.90;3.03;;;;;;;20.02;52.96;101058.13;5062700;28;20025;-68
2022/10/20 11:33:49;;;;;;;7.50;3.50;;;;;;;19.99;52.85;101043.34;5062650;28;20257;-66
2022/10/20 11:36:18;;;;;;;7.93;3.08;;;;;;;20.05;52.91;101034.06;5062977;28;20044;-65
2022/10/20 11:38:49;;;;;;;7.95;3.10;;;;;;;20.01;52.67;101041.44;5062984;28;20410;-64